createdAt,value
2023-04-07T00:01:52.508Z,5.00
2023-04-07T00:08:27.386Z,5.95
2023-04-07T00:10:58.647Z,5.45
2023-04-07T00:13:30.607Z,7.53
2023-04-07T00:16:01.698Z,5.80
2023-04-07T00:18:32.361Z,6.60
2023-04-07T00:21:02.954Z,6.80
2023-04-07T00:23:36.315Z,4.30
2023-04-07T00:26:07.242Z,4.38
2023-04-07T00:28:37.982Z,6.10
2023-04-07T00:31:08.698Z,4.32
2023-04-07T00:33:39.623Z,5.93
2023-04-07T00:36:10.658Z,4.47
2023-04-07T00:38:44.667Z,4.93
2023-04-07T00:41:16.035Z,6.20
2023-04-07T00:43:46.645Z,4.80
2023-04-07T00:46:17.632Z,4.20
2023-04-07T00:48:48.441Z,5.90
2023-04-07T00:51:19.651Z,5.85
2023-04-07T00:53:53.234Z,4.22
2023-04-07T00:56:24.655Z,4.20
2023-04-07T00:58:55.590Z,4.80
2023-04-07T01:01:30.794Z,4.78
2023-04-07T01:04:05.618Z,4.38
2023-04-07T01:06:46.971Z,7.95
2023-04-07T01:09:26.178Z,4.95
2023-04-07T01:12:05.455Z,5.05
2023-04-07T01:14:43.202Z,4.88
2023-04-07T01:17:38.512Z,3.85
2023-04-07T01:20:15.450Z,5.35
2023-04-07T01:22:54.160Z,5.45
2023-04-07T01:25:52.592Z,4.93
2023-04-07T01:28:43.447Z,6.13
2023-04-07T01:31:18.596Z,6.32
2023-04-07T01:33:51.367Z,4.90
2023-04-07T01:36:25.665Z,4.00
2023-04-07T01:38:57.137Z,5.35
2023-04-07T01:41:30.362Z,5.65
2023-04-07T01:44:02.660Z,4.63
2023-04-07T01:46:36.978Z,4.30
2023-04-07T01:49:08.686Z,4.63
2023-04-07T01:51:40.386Z,3.90
2023-04-07T01:54:11.849Z,5.40
2023-04-07T01:56:42.862Z,4.28
2023-04-07T01:59:13.742Z,4.72
2023-04-07T02:01:47.442Z,4.60
2023-04-07T02:04:25.065Z,3.72
2023-04-07T02:07:03.373Z,4.80
2023-04-07T02:09:43.472Z,4.80
2023-04-07T02:15:01.570Z,4.35
2023-04-07T02:20:11.222Z,5.40
2023-04-07T02:22:42.838Z,5.35
2023-04-07T02:25:27.761Z,4.53
2023-04-07T02:27:59.980Z,7.00
2023-04-07T02:30:31.596Z,5.10
2023-04-07T02:33:04.999Z,4.80
2023-04-07T02:35:35.851Z,3.77
2023-04-07T02:38:10.023Z,5.07
2023-04-07T02:40:41.424Z,5.40
2023-04-07T02:43:12.130Z,3.85
2023-04-07T02:45:45.709Z,4.07
2023-04-07T02:48:22.967Z,4.70
2023-04-07T02:50:54.203Z,5.15
2023-04-07T02:53:24.940Z,5.72
2023-04-07T02:55:55.966Z,4.45
2023-04-07T02:58:26.701Z,3.25
2023-04-07T03:00:57.372Z,3.72
2023-04-07T03:06:13.461Z,4.97
2023-04-07T03:08:57.086Z,3.55
2023-04-07T03:11:27.593Z,3.78
2023-04-07T03:14:00.646Z,4.25
2023-04-07T03:16:34.289Z,4.53
2023-04-07T03:19:13.237Z,5.30
2023-04-07T03:21:47.988Z,5.47
2023-04-07T03:24:18.628Z,4.75
2023-04-07T03:26:51.600Z,5.10
2023-04-07T03:29:28.385Z,5.13
2023-04-07T03:31:59.134Z,5.03
2023-04-07T03:34:33.603Z,5.00
2023-04-07T03:37:04.296Z,4.45
2023-04-07T03:39:39.491Z,4.90
2023-04-07T03:42:23.793Z,3.97
2023-04-07T03:44:58.585Z,3.28
2023-04-07T03:47:29.659Z,4.53
2023-04-07T03:50:07.992Z,5.65
2023-04-07T03:52:47.398Z,6.20
2023-04-07T03:55:26.849Z,6.20
2023-04-07T03:58:02.257Z,7.28
2023-04-07T04:00:36.289Z,4.78
2023-04-07T04:03:13.241Z,6.05
2023-04-07T04:05:59.203Z,5.35
2023-04-07T04:08:33.875Z,4.82
2023-04-07T04:11:04.754Z,7.22
2023-04-07T04:13:41.221Z,5.90
2023-04-07T04:16:14.971Z,8.10
2023-04-07T04:18:46.899Z,7.57
2023-04-07T04:21:21.680Z,5.90
2023-04-07T04:23:52.574Z,6.00
2023-04-07T04:26:26.254Z,5.38
2023-04-07T04:29:00.979Z,7.35
2023-04-07T04:31:31.675Z,6.55
2023-04-07T04:34:03.729Z,7.47
2023-04-07T04:36:38.428Z,7.63
2023-04-07T04:39:10.267Z,6.93
2023-04-07T04:41:41.987Z,7.70
2023-04-07T04:44:14.391Z,8.10
2023-04-07T04:46:46.145Z,6.00
2023-04-07T04:49:19.132Z,8.73
2023-04-07T04:51:55.222Z,9.27
2023-04-07T04:54:25.913Z,9.95
2023-04-07T04:56:57.439Z,8.98
2023-04-07T04:59:28.188Z,6.25
2023-04-07T05:02:05.581Z,8.15
2023-04-07T05:04:36.878Z,6.88
2023-04-07T05:07:24.700Z,7.55
2023-04-07T05:09:56.316Z,7.53
2023-04-07T05:12:28.054Z,8.07
2023-04-07T05:15:03.039Z,5.35
2023-04-07T05:17:34.233Z,7.32
2023-04-07T05:20:08.161Z,5.78
2023-04-07T05:22:44.379Z,6.10
2023-04-07T05:25:17.791Z,8.65
2023-04-07T05:27:50.676Z,8.05
2023-04-07T05:30:22.285Z,7.25
2023-04-07T05:32:52.947Z,6.15
2023-04-07T05:35:36.660Z,7.72
2023-04-07T05:38:14.840Z,7.88
2023-04-07T05:40:46.499Z,5.68
2023-04-07T05:43:24.146Z,6.80
2023-04-07T05:45:55.573Z,6.38
2023-04-07T05:48:29.720Z,6.22
2023-04-07T05:51:00.900Z,6.50
2023-04-07T05:53:34.418Z,5.85
2023-04-07T05:56:05.648Z,7.05
2023-04-07T05:58:48.720Z,5.72
2023-04-07T06:01:20.629Z,8.95
2023-04-07T06:03:52.398Z,7.03
2023-04-07T06:06:26.538Z,9.02
2023-04-07T06:08:59.988Z,6.03
2023-04-07T06:11:30.606Z,6.20
2023-04-07T06:14:01.575Z,5.05
2023-04-07T06:16:32.183Z,8.00
2023-04-07T06:19:02.737Z,8.20
2023-04-07T06:21:33.440Z,8.35
2023-04-07T06:24:06.770Z,8.30
2023-04-07T06:26:39.216Z,12.23
2023-04-07T06:29:10.137Z,9.63
2023-04-07T06:31:41.270Z,11.63
2023-04-07T06:34:15.311Z,8.27
2023-04-07T06:36:46.732Z,7.55
2023-04-07T06:39:20.224Z,5.82
2023-04-07T06:41:50.827Z,9.82
2023-04-07T06:44:21.511Z,7.90
2023-04-07T06:46:53.535Z,9.05
2023-04-07T06:49:24.191Z,6.30
2023-04-07T06:51:55.091Z,9.10
2023-04-07T06:54:28.285Z,8.68
2023-04-07T06:56:58.930Z,7.82
2023-04-07T06:59:29.544Z,6.53
2023-04-07T07:02:00.329Z,5.15
2023-04-07T07:04:31.146Z,6.30
2023-04-07T07:07:01.851Z,5.95
2023-04-07T07:09:37.363Z,5.68
2023-04-07T07:12:08.620Z,7.03
2023-04-07T07:14:39.397Z,5.60
2023-04-07T07:17:10.030Z,5.25
2023-04-07T07:19:40.970Z,6.38
2023-04-07T07:22:11.729Z,7.72
2023-04-07T07:24:44.928Z,7.63
2023-04-07T07:27:16.177Z,6.35
2023-04-07T07:29:47.372Z,4.60
2023-04-07T07:32:17.983Z,6.65
2023-04-07T07:34:48.578Z,6.45
2023-04-07T07:37:19.153Z,5.65
2023-04-07T07:39:52.756Z,7.93
2023-04-07T07:42:23.366Z,7.07
2023-04-07T07:44:54.166Z,7.57
2023-04-07T07:47:25.200Z,9.18
2023-04-07T07:49:56.042Z,5.85
2023-04-07T07:52:27.293Z,7.28
2023-04-07T07:55:04.312Z,6.10
2023-04-07T07:57:35.070Z,7.53
2023-04-07T08:00:06.125Z,8.70
2023-04-07T08:02:44.096Z,7.38
2023-04-07T08:05:14.937Z,6.55
2023-04-07T08:07:47.085Z,7.35
2023-04-07T08:10:20.554Z,7.70
2023-04-07T08:12:51.203Z,8.85
2023-04-07T08:15:22.062Z,8.13
2023-04-07T08:17:54.687Z,9.07
2023-04-07T08:20:26.836Z,8.25
2023-04-07T08:22:57.459Z,7.07
2023-04-07T08:25:31.046Z,9.10
2023-04-07T08:28:01.770Z,8.95
2023-04-07T08:30:32.480Z,7.15
2023-04-07T08:33:03.247Z,6.47
2023-04-07T08:35:34.015Z,7.05
2023-04-07T08:38:05.996Z,6.82
2023-04-07T08:40:39.269Z,8.10
2023-04-07T08:43:13.454Z,7.10
2023-04-07T08:45:45.308Z,6.93
2023-04-07T08:48:19.863Z,7.57
2023-04-07T08:50:54.652Z,5.20
2023-04-07T08:53:30.400Z,6.40
2023-04-07T08:56:04.804Z,8.43
2023-04-07T08:58:35.619Z,4.03
2023-04-07T09:01:08.767Z,6.00
2023-04-07T09:03:39.998Z,6.47
2023-04-07T09:06:11.048Z,7.30
2023-04-07T09:08:41.775Z,4.90
2023-04-07T09:11:15.318Z,6.82
2023-04-07T09:13:46.318Z,4.63
2023-04-07T09:16:17.603Z,3.90
2023-04-07T09:18:48.492Z,5.72
2023-04-07T09:21:19.216Z,4.43
2023-04-07T09:23:50.804Z,5.28
2023-04-07T09:26:26.395Z,4.68
2023-04-07T09:28:58.588Z,5.60
2023-04-07T09:31:48.337Z,5.68
2023-04-07T09:34:29.679Z,7.47
2023-04-07T09:37:01.592Z,5.38
2023-04-07T09:39:32.422Z,5.15
2023-04-07T09:42:10.099Z,6.60
2023-04-07T09:44:43.990Z,7.43
2023-04-07T09:49:57.068Z,5.88
2023-04-07T09:52:49.717Z,7.20
2023-04-07T09:55:22.032Z,4.35
2023-04-07T09:57:56.275Z,5.57
2023-04-07T10:02:58.353Z,5.97
2023-04-07T10:05:30.837Z,6.90
2023-04-07T10:08:02.232Z,5.47
2023-04-07T10:10:34.202Z,6.75
2023-04-07T10:13:08.165Z,4.93
2023-04-07T10:18:11.401Z,5.45
2023-04-07T10:20:43.547Z,4.68
2023-04-07T10:23:22.387Z,3.50
2023-04-07T10:25:56.795Z,6.43
2023-04-07T10:31:02.917Z,6.43
2023-04-07T10:33:49.527Z,5.97
2023-04-07T10:36:21.012Z,6.63
2023-04-07T10:39:25.308Z,6.97
2023-04-07T10:41:56.119Z,6.35
2023-04-07T10:44:53.597Z,7.30
2023-04-07T10:47:24.210Z,6.68
2023-04-07T10:50:20.124Z,5.57
2023-04-07T10:52:52.697Z,5.97
2023-04-07T10:55:34.618Z,6.55
2023-04-07T10:58:29.503Z,9.65
2023-04-07T11:01:24.013Z,11.30
2023-04-07T11:04:05.021Z,4.40
2023-04-07T11:06:35.851Z,6.15
2023-04-07T11:09:06.809Z,7.28
2023-04-07T11:11:43.106Z,7.28
2023-04-07T11:14:13.894Z,7.25
2023-04-07T11:16:47.578Z,6.90
2023-04-07T11:19:18.766Z,7.40
2023-04-07T11:21:49.469Z,7.78
2023-04-07T11:24:35.177Z,6.90
2023-04-07T11:27:06.790Z,7.70
2023-04-07T11:29:37.837Z,6.07
2023-04-07T11:32:11.443Z,6.57
2023-04-07T11:34:42.876Z,5.40
2023-04-07T11:37:23.400Z,3.88
2023-04-07T11:39:57.174Z,6.47
2023-04-07T11:42:37.504Z,5.43
2023-04-07T11:45:09.548Z,5.45
2023-04-07T11:47:43.828Z,5.22
2023-04-07T11:50:14.618Z,4.45
2023-04-07T11:52:45.569Z,8.30
2023-04-07T11:55:24.406Z,6.88
2023-04-07T11:57:55.567Z,7.10
2023-04-07T12:00:26.554Z,6.18
2023-04-07T12:02:59.922Z,6.60
2023-04-07T12:05:45.486Z,9.13
2023-04-07T12:08:16.931Z,8.35
2023-04-07T12:10:48.595Z,7.80
2023-04-07T12:13:19.701Z,6.22
2023-04-07T12:15:50.730Z,5.50
2023-04-07T12:18:25.299Z,6.50
2023-04-07T12:20:56.256Z,5.72
2023-04-07T12:23:26.978Z,4.70
2023-04-07T12:25:57.502Z,3.80
2023-04-07T12:28:28.302Z,4.53
2023-04-07T12:30:59.011Z,8.50
2023-04-07T12:33:32.183Z,6.45
2023-04-07T12:36:03.103Z,6.97
2023-04-07T12:38:33.803Z,8.90
2023-04-07T12:41:04.324Z,7.70
2023-04-07T12:43:35.803Z,6.72
2023-04-07T12:46:06.711Z,9.02
2023-04-07T12:48:40.360Z,5.85
2023-04-07T12:51:11.230Z,4.53
2023-04-07T12:53:42.008Z,5.25
2023-04-07T12:56:14.265Z,7.53
2023-04-07T12:58:44.849Z,7.07
2023-04-07T13:01:15.570Z,5.72
2023-04-07T13:03:49.095Z,5.65
2023-04-07T13:06:20.245Z,5.03
2023-04-07T13:08:51.032Z,5.05
2023-04-07T13:11:22.057Z,6.47
2023-04-07T13:13:54.875Z,6.03
2023-04-07T13:18:59.982Z,4.72
2023-04-07T13:24:04.190Z,2.78
2023-04-07T13:26:34.774Z,4.55
2023-04-07T13:29:05.442Z,3.78
2023-04-07T13:31:36.165Z,5.07
2023-04-07T13:34:09.491Z,2.65
2023-04-07T13:36:40.381Z,5.17
2023-04-07T13:39:11.361Z,6.50
2023-04-07T13:41:41.972Z,7.03
2023-04-07T13:44:12.801Z,5.30
2023-04-07T13:46:43.936Z,5.75
2023-04-07T13:49:17.172Z,4.57
2023-04-07T13:51:47.791Z,4.60
2023-04-07T13:54:19.669Z,5.15
2023-04-07T13:56:51.344Z,5.20
2023-04-07T13:59:21.937Z,5.43
2023-04-07T14:01:52.713Z,4.75
2023-04-07T14:04:26.170Z,4.00
2023-04-07T14:06:57.362Z,4.85
2023-04-07T14:09:27.845Z,6.50
2023-04-07T14:11:58.552Z,4.28
2023-04-07T14:14:29.102Z,4.78
2023-04-07T14:16:59.788Z,3.75
2023-04-07T14:19:33.696Z,3.45
2023-04-07T14:22:04.284Z,4.05
2023-04-07T14:24:34.951Z,3.75
2023-04-07T14:27:05.802Z,4.88
2023-04-07T14:29:36.725Z,6.85
2023-04-07T14:32:07.434Z,3.72
2023-04-07T14:34:40.646Z,5.25
2023-04-07T14:37:11.986Z,4.63
2023-04-07T14:39:48.458Z,3.45
2023-04-07T14:42:26.765Z,3.80
2023-04-07T14:44:57.337Z,3.38
2023-04-07T14:47:28.316Z,4.80
2023-04-07T14:50:01.664Z,6.45
2023-04-07T14:52:32.665Z,5.00
2023-04-07T14:55:03.496Z,6.75
2023-04-07T14:57:34.224Z,4.53
2023-04-07T15:00:07.615Z,3.88
2023-04-07T15:02:38.842Z,5.20
2023-04-07T15:05:13.726Z,5.13
2023-04-07T15:07:46.049Z,4.07
2023-04-07T15:10:17.362Z,5.40
2023-04-07T15:12:48.932Z,2.35
2023-04-07T15:15:19.949Z,4.57
2023-04-07T15:17:50.677Z,4.78
2023-04-07T15:20:24.064Z,2.38
2023-04-07T15:22:54.682Z,3.33
2023-04-07T15:25:25.772Z,2.92
2023-04-07T15:27:56.570Z,2.60
2023-04-07T15:30:27.611Z,2.77
2023-04-07T15:33:01.757Z,4.00
2023-04-07T15:38:05.202Z,2.97
2023-04-07T15:40:39.187Z,4.13
2023-04-07T15:43:11.360Z,3.92
2023-04-07T15:45:45.135Z,3.20
2023-04-07T15:48:16.066Z,4.07
2023-04-07T15:50:49.805Z,3.55
2023-04-07T15:53:20.660Z,2.72
2023-04-07T15:55:51.431Z,2.15
2023-04-07T15:58:22.158Z,2.35
2023-04-07T16:00:52.939Z,1.83
2023-04-07T16:03:23.660Z,2.15
2023-04-07T16:05:57.292Z,2.35
2023-04-07T16:08:28.090Z,2.70
2023-04-07T16:10:58.769Z,2.70
2023-04-07T16:13:29.443Z,2.80
2023-04-07T16:16:00.714Z,2.50
2023-04-07T16:18:31.555Z,1.95
2023-04-07T16:21:04.836Z,2.58
2023-04-07T16:23:35.454Z,3.53
2023-04-07T16:26:06.649Z,4.00
2023-04-07T16:28:37.866Z,3.30
2023-04-07T16:31:09.018Z,4.50
2023-04-07T16:33:39.669Z,4.65
2023-04-07T16:36:13.301Z,3.28
2023-04-07T16:38:43.907Z,4.55
2023-04-07T16:41:14.686Z,5.32
2023-04-07T16:43:45.842Z,3.13
2023-04-07T16:46:16.766Z,2.38
2023-04-07T16:48:47.909Z,3.45
2023-04-07T16:51:22.930Z,4.00
2023-04-07T16:53:53.745Z,6.63
2023-04-07T16:56:26.206Z,3.10
2023-04-07T16:58:56.879Z,2.55
2023-04-07T17:01:31.076Z,2.95
2023-04-07T17:06:34.880Z,3.75
2023-04-07T17:09:05.556Z,2.30
2023-04-07T17:11:36.116Z,4.30
2023-04-07T17:14:06.745Z,2.92
2023-04-07T17:16:37.754Z,3.95
2023-04-07T17:19:08.587Z,4.38
2023-04-07T17:21:42.269Z,2.58
2023-04-07T17:24:24.091Z,5.68
2023-04-07T17:26:55.069Z,6.78
2023-04-07T17:29:29.205Z,4.43
2023-04-07T17:32:00.127Z,4.30
2023-04-07T17:34:31.043Z,3.13
2023-04-07T17:37:04.301Z,3.80
2023-04-07T17:39:34.939Z,3.13
2023-04-07T17:42:05.481Z,5.57
2023-04-07T17:44:36.099Z,3.15
2023-04-07T17:47:06.734Z,3.67
2023-04-07T17:49:37.537Z,3.55
2023-04-07T17:52:11.498Z,2.72
2023-04-07T17:54:42.168Z,3.85
2023-04-07T17:57:14.645Z,3.63
2023-04-07T17:59:45.599Z,4.13
2023-04-07T18:02:16.620Z,1.65
2023-04-07T18:04:47.953Z,3.03
2023-04-07T18:07:21.554Z,4.15
2023-04-07T18:09:52.536Z,2.88
2023-04-07T18:12:23.000Z,2.72
2023-04-07T18:14:53.753Z,3.70
2023-04-07T18:17:24.495Z,2.67
2023-04-07T18:19:55.033Z,2.28
2023-04-07T18:22:30.073Z,3.05
2023-04-07T18:25:01.248Z,3.13
2023-04-07T18:27:32.287Z,3.50
2023-04-07T18:30:02.917Z,2.60
2023-04-07T18:32:33.759Z,3.55
2023-04-07T18:35:04.447Z,3.03
2023-04-07T18:37:37.915Z,2.20
2023-04-07T18:40:10.317Z,1.88
2023-04-07T18:42:41.776Z,2.35
2023-04-07T18:45:13.425Z,2.95
2023-04-07T18:47:44.115Z,2.97
2023-04-07T18:50:14.871Z,2.30
2023-04-07T18:52:48.319Z,3.05
2023-04-07T18:55:20.878Z,2.60
2023-04-07T18:57:52.089Z,1.75
2023-04-07T19:00:22.839Z,1.58
2023-04-07T19:02:53.613Z,2.85
2023-04-07T19:05:25.843Z,1.83
2023-04-07T19:07:59.329Z,1.75
2023-04-07T19:10:30.027Z,1.63
2023-04-07T19:13:00.866Z,2.08
2023-04-07T19:15:34.292Z,1.63
2023-04-07T19:18:05.289Z,2.65
2023-04-07T19:20:36.290Z,1.55
2023-04-07T19:23:09.577Z,2.10
2023-04-07T19:25:44.375Z,1.65
2023-04-07T19:28:16.536Z,1.60
2023-04-07T19:30:47.478Z,1.00
2023-04-07T19:33:18.397Z,1.55
2023-04-07T19:35:49.208Z,2.22
2023-04-07T19:38:22.509Z,1.52
2023-04-07T19:40:53.399Z,1.85
2023-04-07T19:43:24.064Z,2.05
2023-04-07T19:45:54.847Z,2.50
2023-04-07T19:48:25.631Z,1.77
2023-04-07T19:50:56.444Z,1.30
2023-04-07T19:53:29.701Z,2.28
2023-04-07T19:56:00.401Z,1.55
2023-04-07T19:58:31.237Z,1.63
2023-04-07T20:01:04.337Z,4.32
2023-04-07T20:03:35.434Z,1.75
2023-04-07T20:06:06.403Z,1.00
2023-04-07T20:08:39.737Z,1.23
2023-04-07T20:11:13.232Z,2.70
2023-04-07T20:13:44.600Z,1.90
2023-04-07T20:16:15.460Z,1.50
2023-04-07T20:18:46.582Z,1.95
2023-04-07T20:21:17.225Z,2.85
2023-04-07T20:23:50.415Z,2.78
2023-04-07T20:26:22.348Z,2.63
2023-04-07T20:28:53.043Z,2.45
2023-04-07T20:31:23.912Z,1.83
2023-04-07T20:33:54.896Z,2.65
2023-04-07T20:36:26.089Z,3.55
2023-04-07T20:38:59.793Z,1.70
2023-04-07T20:41:30.804Z,3.03
2023-04-07T20:44:01.554Z,2.97
2023-04-07T20:46:32.699Z,3.67
2023-04-07T20:49:04.114Z,4.20
2023-04-07T20:51:35.156Z,3.10
2023-04-07T20:54:08.482Z,4.00
2023-04-07T20:56:39.159Z,2.80
2023-04-07T20:59:09.859Z,3.38
2023-04-07T21:01:40.771Z,3.15
2023-04-07T21:04:12.792Z,2.15
2023-04-07T21:06:44.257Z,2.95
2023-04-07T21:09:18.042Z,3.70
2023-04-07T21:11:48.925Z,2.95
2023-04-07T21:14:19.564Z,2.88
2023-04-07T21:16:50.279Z,2.58
2023-04-07T21:19:20.979Z,2.55
2023-04-07T21:21:51.667Z,3.13
2023-04-07T21:24:24.990Z,3.67
2023-04-07T21:26:56.767Z,2.40
2023-04-07T21:29:27.531Z,3.13
2023-04-07T21:31:58.246Z,2.10
2023-04-07T21:34:29.699Z,2.22
2023-04-07T21:37:00.233Z,2.13
2023-04-07T21:39:33.404Z,1.90
2023-04-07T21:42:04.362Z,2.13
2023-04-07T21:44:34.871Z,3.42
2023-04-07T21:47:05.436Z,2.33
2023-04-07T21:49:38.832Z,4.80
2023-04-07T21:52:09.849Z,2.73
2023-04-07T21:54:43.543Z,2.50
2023-04-07T21:57:14.393Z,2.40
2023-04-07T21:59:45.066Z,4.10
2023-04-07T22:02:15.610Z,2.70
2023-04-07T22:04:46.470Z,2.58
2023-04-07T22:07:17.216Z,5.53
2023-04-07T22:09:50.650Z,3.50
2023-04-07T22:12:21.392Z,2.50
2023-04-07T22:14:52.108Z,2.58
2023-04-07T22:17:22.677Z,2.72
2023-04-07T22:19:53.255Z,2.95
2023-04-07T22:22:23.872Z,1.63
2023-04-07T22:24:57.111Z,2.25
2023-04-07T22:27:28.026Z,2.90
2023-04-07T22:29:58.640Z,2.72
2023-04-07T22:32:29.239Z,1.83
2023-04-07T22:35:00.844Z,2.15
2023-04-07T22:37:31.802Z,2.38
2023-04-07T22:40:05.048Z,1.88
2023-04-07T22:42:35.681Z,3.07
2023-04-07T22:45:07.014Z,2.38
2023-04-07T22:47:38.096Z,3.72
2023-04-07T22:50:10.170Z,2.78
2023-04-07T22:52:40.860Z,2.00
2023-04-07T22:55:14.284Z,4.35
2023-04-07T22:57:45.053Z,2.22
2023-04-07T23:00:16.262Z,2.65
2023-04-07T23:02:46.918Z,2.92
2023-04-07T23:05:17.555Z,1.92
2023-04-07T23:07:48.314Z,2.28
2023-04-07T23:10:21.531Z,3.53
2023-04-07T23:12:54.924Z,2.60
2023-04-07T23:15:25.778Z,3.23
2023-04-07T23:17:56.724Z,2.95
2023-04-07T23:20:27.433Z,3.88
2023-04-07T23:22:58.181Z,2.70
2023-04-07T23:25:31.540Z,2.95
2023-04-07T23:28:02.128Z,3.17
2023-04-07T23:30:32.709Z,2.45
2023-04-07T23:33:03.173Z,1.90
2023-04-07T23:35:33.938Z,1.85
2023-04-07T23:38:04.724Z,1.42
2023-04-07T23:40:37.985Z,2.45
2023-04-07T23:43:08.916Z,2.30
2023-04-07T23:45:39.847Z,2.28
2023-04-07T23:48:10.775Z,2.58
2023-04-07T23:50:41.947Z,3.63
2023-04-07T23:53:12.659Z,3.65
2023-04-07T23:55:45.810Z,4.15
2023-04-07T23:58:16.446Z,6.20
